Dhaka, Bangladesh
Current Conditions -  °F | °C
As of 10:50 AM on Wednesday 22 Oct 2014 (Local Time) from VGHS Reporting Station
Haze Haze  
Wind Chill: 88°   Ceiling: Unl
Heat Index: 90°   Visibility: 3mi
Dew Point: 66°   Wind: 6mph
Humidity: 49%   Direction: 350°N
Pressure: 29.94"   Gusts: NA
Location:  23.7°N, 90.39°E
Report Text: VGHS 220450Z 35005KT 5000 HZ NSC 31/19 Q1014 NOSIG
Loading
Personal Weather Stations






























Interactive Weather Map
Tropical Storm Tracking
New forecast layout! Learn more

10-Day Weather Forecast

Advertisements
Track Severe Weather on mobile